sensor_id;sensor_type;location;lat;lon;timestamp;temperature;humidity
74617;DHT22;63123;50.906;4.198;2023-07-31T00:02:16;20.90;69.70
74617;DHT22;63123;50.906;4.198;2023-07-31T00:04:42;20.90;69.70
74617;DHT22;63123;50.906;4.198;2023-07-31T00:07:08;20.90;69.70
74617;DHT22;63123;50.906;4.198;2023-07-31T00:09:33;20.90;69.70
74617;DHT22;63123;50.906;4.198;2023-07-31T00:11:59;20.90;69.70
74617;DHT22;63123;50.906;4.198;2023-07-31T00:14:25;20.90;69.70
74617;DHT22;63123;50.906;4.198;2023-07-31T00:16:50;20.90;69.70
74617;DHT22;63123;50.906;4.198;2023-07-31T00:19:16;20.90;69.70
74617;DHT22;63123;50.906;4.198;2023-07-31T00:21:42;20.90;69.70
74617;DHT22;63123;50.906;4.198;2023-07-31T00:24:07;20.90;69.70
74617;DHT22;63123;50.906;4.198;2023-07-31T00:26:33;20.90;69.70
74617;DHT22;63123;50.906;4.198;2023-07-31T00:28:58;20.90;69.60
74617;DHT22;63123;50.906;4.198;2023-07-31T00:31:24;20.90;69.70
74617;DHT22;63123;50.906;4.198;2023-07-31T00:33:49;20.90;69.70
74617;DHT22;63123;50.906;4.198;2023-07-31T00:36:15;20.90;69.70
74617;DHT22;63123;50.906;4.198;2023-07-31T00:38:40;20.90;69.70
74617;DHT22;63123;50.906;4.198;2023-07-31T00:41:06;20.90;69.60
74617;DHT22;63123;50.906;4.198;2023-07-31T00:43:32;20.90;69.70
74617;DHT22;63123;50.906;4.198;2023-07-31T00:45:57;20.90;69.70
74617;DHT22;63123;50.906;4.198;2023-07-31T00:48:23;20.90;69.70
74617;DHT22;63123;50.906;4.198;2023-07-31T00:50:49;20.90;69.70
74617;DHT22;63123;50.906;4.198;2023-07-31T00:53:15;20.90;69.70
74617;DHT22;63123;50.906;4.198;2023-07-31T00:55:41;20.90;69.70
74617;DHT22;63123;50.906;4.198;2023-07-31T00:58:07;20.90;69.70
74617;DHT22;63123;50.906;4.198;2023-07-31T01:00:33;20.90;69.70
74617;DHT22;63123;50.906;4.198;2023-07-31T01:02:58;20.90;69.70
74617;DHT22;63123;50.906;4.198;2023-07-31T01:05:33;20.90;69.70
74617;DHT22;63123;50.906;4.198;2023-07-31T01:08:12;20.90;69.70
74617;DHT22;63123;50.906;4.198;2023-07-31T01:10:52;20.90;69.70
74617;DHT22;63123;50.906;4.198;2023-07-31T01:13:21;20.90;69.70
74617;DHT22;63123;50.906;4.198;2023-07-31T01:15:47;20.90;69.70
74617;DHT22;63123;50.906;4.198;2023-07-31T01:18:12;20.90;69.70
74617;DHT22;63123;50.906;4.198;2023-07-31T01:20:42;20.90;69.80
74617;DHT22;63123;50.906;4.198;2023-07-31T01:23:35;20.90;69.80
74617;DHT22;63123;50.906;4.198;2023-07-31T01:26:30;20.90;69.80
74617;DHT22;63123;50.906;4.198;2023-07-31T01:29:10;20.90;69.70
74617;DHT22;63123;50.906;4.198;2023-07-31T01:31:36;20.90;69.80
74617;DHT22;63123;50.906;4.198;2023-07-31T01:34:04;20.90;69.80
74617;DHT22;63123;50.906;4.198;2023-07-31T01:36:32;20.90;69.80
74617;DHT22;63123;50.906;4.198;2023-07-31T01:38:58;20.80;69.70
74617;DHT22;63123;50.906;4.198;2023-07-31T01:41:24;20.90;69.80
74617;DHT22;63123;50.906;4.198;2023-07-31T01:43:50;20.90;69.80
74617;DHT22;63123;50.906;4.198;2023-07-31T01:46:15;20.90;69.80
74617;DHT22;63123;50.906;4.198;2023-07-31T01:48:41;20.90;69.80
74617;DHT22;63123;50.906;4.198;2023-07-31T01:51:07;20.90;69.80
74617;DHT22;63123;50.906;4.198;2023-07-31T01:53:32;20.90;69.80
74617;DHT22;63123;50.906;4.198;2023-07-31T01:55:58;20.90;69.80
74617;DHT22;63123;50.906;4.198;2023-07-31T01:58:24;20.90;69.80
74617;DHT22;63123;50.906;4.198;2023-07-31T02:00:50;20.90;69.80
74617;DHT22;63123;50.906;4.198;2023-07-31T02:03:15;20.90;69.80
74617;DHT22;63123;50.906;4.198;2023-07-31T02:05:45;20.90;69.80
74617;DHT22;63123;50.906;4.198;2023-07-31T02:08:11;20.90;69.80
74617;DHT22;63123;50.906;4.198;2023-07-31T02:10:37;20.90;69.80
74617;DHT22;63123;50.906;4.198;2023-07-31T02:13:02;20.80;69.80
74617;DHT22;63123;50.906;4.198;2023-07-31T02:15:29;20.80;69.80
74617;DHT22;63123;50.906;4.198;2023-07-31T02:17:55;20.90;69.80
74617;DHT22;63123;50.906;4.198;2023-07-31T02:20:21;20.90;69.80
74617;DHT22;63123;50.906;4.198;2023-07-31T02:22:46;20.90;69.90
74617;DHT22;63123;50.906;4.198;2023-07-31T02:25:12;20.90;69.90
74617;DHT22;63123;50.906;4.198;2023-07-31T02:27:38;20.90;69.90
74617;DHT22;63123;50.906;4.198;2023-07-31T02:30:03;20.80;69.80
74617;DHT22;63123;50.906;4.198;2023-07-31T02:32:29;20.90;69.90
74617;DHT22;63123;50.906;4.198;2023-07-31T02:34:55;20.80;69.80
74617;DHT22;63123;50.906;4.198;2023-07-31T02:37:20;20.90;69.90
74617;DHT22;63123;50.906;4.198;2023-07-31T02:39:46;20.90;69.90
74617;DHT22;63123;50.906;4.198;2023-07-31T02:42:12;20.90;69.90
74617;DHT22;63123;50.906;4.198;2023-07-31T02:44:38;20.90;69.90
74617;DHT22;63123;50.906;4.198;2023-07-31T02:47:03;20.90;69.90
74617;DHT22;63123;50.906;4.198;2023-07-31T02:49:29;20.90;69.90
74617;DHT22;63123;50.906;4.198;2023-07-31T02:51:54;20.90;69.90
74617;DHT22;63123;50.906;4.198;2023-07-31T02:54:20;20.90;69.90
74617;DHT22;63123;50.906;4.198;2023-07-31T02:56:47;20.90;69.90
74617;DHT22;63123;50.906;4.198;2023-07-31T02:59:13;20.90;69.90
74617;DHT22;63123;50.906;4.198;2023-07-31T03:01:38;20.80;69.90
74617;DHT22;63123;50.906;4.198;2023-07-31T03:04:04;20.90;70.00
74617;DHT22;63123;50.906;4.198;2023-07-31T03:06:30;20.90;70.00
74617;DHT22;63123;50.906;4.198;2023-07-31T03:08:55;20.90;69.90
74617;DHT22;63123;50.906;4.198;2023-07-31T03:11:21;20.80;69.90
74617;DHT22;63123;50.906;4.198;2023-07-31T03:13:47;20.90;69.90
74617;DHT22;63123;50.906;4.198;2023-07-31T03:16:13;20.80;69.90
74617;DHT22;63123;50.906;4.198;2023-07-31T03:18:38;20.80;69.90
74617;DHT22;63123;50.906;4.198;2023-07-31T03:21:04;20.90;70.00
74617;DHT22;63123;50.906;4.198;2023-07-31T03:23:30;20.90;70.00
74617;DHT22;63123;50.906;4.198;2023-07-31T03:26:00;20.90;70.00
74617;DHT22;63123;50.906;4.198;2023-07-31T03:28:26;20.90;70.00
74617;DHT22;63123;50.906;4.198;2023-07-31T03:30:53;20.90;70.00
74617;DHT22;63123;50.906;4.198;2023-07-31T03:33:19;20.90;70.60
74617;DHT22;63123;50.906;4.198;2023-07-31T03:35:45;20.80;70.00
74617;DHT22;63123;50.906;4.198;2023-07-31T03:38:11;20.90;70.10
74617;DHT22;63123;50.906;4.198;2023-07-31T03:40:36;20.90;70.00
74617;DHT22;63123;50.906;4.198;2023-07-31T03:43:02;20.90;70.00
74617;DHT22;63123;50.906;4.198;2023-07-31T03:45:27;20.90;70.10
74617;DHT22;63123;50.906;4.198;2023-07-31T03:47:53;20.90;70.10
74617;DHT22;63123;50.906;4.198;2023-07-31T03:50:20;20.80;70.60
74617;DHT22;63123;50.906;4.198;2023-07-31T03:52:46;20.80;70.00
74617;DHT22;63123;50.906;4.198;2023-07-31T03:55:11;20.90;70.10
74617;DHT22;63123;50.906;4.198;2023-07-31T03:57:37;20.80;70.00
74617;DHT22;63123;50.906;4.198;2023-07-31T04:00:03;20.90;70.10
74617;DHT22;63123;50.906;4.198;2023-07-31T04:02:29;20.90;70.10
74617;DHT22;63123;50.906;4.198;2023-07-31T04:04:54;20.90;70.10
74617;DHT22;63123;50.906;4.198;2023-07-31T04:07:20;20.80;70.10
74617;DHT22;63123;50.906;4.198;2023-07-31T04:09:45;20.90;70.10
74617;DHT22;63123;50.906;4.198;2023-07-31T04:12:11;20.90;70.10
74617;DHT22;63123;50.906;4.198;2023-07-31T04:14:37;20.90;70.10
74617;DHT22;63123;50.906;4.198;2023-07-31T04:17:02;20.80;70.00
74617;DHT22;63123;50.906;4.198;2023-07-31T04:19:28;20.80;70.30
74617;DHT22;63123;50.906;4.198;2023-07-31T04:21:54;20.90;70.10
74617;DHT22;63123;50.906;4.198;2023-07-31T04:24:19;20.90;70.10
74617;DHT22;63123;50.906;4.198;2023-07-31T04:26:50;20.90;70.20
74617;DHT22;63123;50.906;4.198;2023-07-31T04:29:16;20.80;70.10
74617;DHT22;63123;50.906;4.198;2023-07-31T04:31:41;20.80;70.70
74617;DHT22;63123;50.906;4.198;2023-07-31T04:34:07;20.80;70.70
74617;DHT22;63123;50.906;4.198;2023-07-31T04:36:33;20.80;70.10
74617;DHT22;63123;50.906;4.198;2023-07-31T04:38:59;20.80;70.10
74617;DHT22;63123;50.906;4.198;2023-07-31T04:41:25;20.80;70.10
74617;DHT22;63123;50.906;4.198;2023-07-31T04:43:50;20.80;70.20
74617;DHT22;63123;50.906;4.198;2023-07-31T04:46:16;20.90;70.20
74617;DHT22;63123;50.906;4.198;2023-07-31T04:48:42;20.90;70.80
74617;DHT22;63123;50.906;4.198;2023-07-31T04:51:08;20.80;70.20
74617;DHT22;63123;50.906;4.198;2023-07-31T04:53:34;20.80;70.20
74617;DHT22;63123;50.906;4.198;2023-07-31T04:56:00;20.80;70.20
74617;DHT22;63123;50.906;4.198;2023-07-31T04:58:26;20.80;70.20
74617;DHT22;63123;50.906;4.198;2023-07-31T05:00:51;20.90;70.20
74617;DHT22;63123;50.906;4.198;2023-07-31T05:03:17;20.80;70.20
74617;DHT22;63123;50.906;4.198;2023-07-31T05:05:43;20.90;70.20
74617;DHT22;63123;50.906;4.198;2023-07-31T05:08:08;20.80;70.20
74617;DHT22;63123;50.906;4.198;2023-07-31T05:10:34;20.80;70.20
74617;DHT22;63123;50.906;4.198;2023-07-31T05:12:59;20.80;70.20
74617;DHT22;63123;50.906;4.198;2023-07-31T05:15:26;20.80;70.20
74617;DHT22;63123;50.906;4.198;2023-07-31T05:17:51;20.90;70.30
74617;DHT22;63123;50.906;4.198;2023-07-31T05:20:17;20.80;70.20
74617;DHT22;63123;50.906;4.198;2023-07-31T05:22:43;20.90;70.30
74617;DHT22;63123;50.906;4.198;2023-07-31T05:25:08;20.90;70.30
74617;DHT22;63123;50.906;4.198;2023-07-31T05:27:34;20.80;70.30
74617;DHT22;63123;50.906;4.198;2023-07-31T05:30:00;20.80;70.20
74617;DHT22;63123;50.906;4.198;2023-07-31T05:32:26;20.80;70.20
74617;DHT22;63123;50.906;4.198;2023-07-31T05:34:52;20.90;70.30
74617;DHT22;63123;50.906;4.198;2023-07-31T05:37:18;20.90;70.40
74617;DHT22;63123;50.906;4.198;2023-07-31T05:39:44;20.90;70.40
74617;DHT22;63123;50.906;4.198;2023-07-31T05:42:10;20.90;70.30
74617;DHT22;63123;50.906;4.198;2023-07-31T05:44:35;20.90;70.40
74617;DHT22;63123;50.906;4.198;2023-07-31T05:47:01;20.90;70.30
74617;DHT22;63123;50.906;4.198;2023-07-31T05:49:26;20.90;70.30
74617;DHT22;63123;50.906;4.198;2023-07-31T05:51:52;20.90;70.40
74617;DHT22;63123;50.906;4.198;2023-07-31T05:54:18;20.90;70.30
74617;DHT22;63123;50.906;4.198;2023-07-31T05:56:43;20.90;70.30
74617;DHT22;63123;50.906;4.198;2023-07-31T05:59:12;20.90;70.40
74617;DHT22;63123;50.906;4.198;2023-07-31T06:01:37;20.80;70.30
74617;DHT22;63123;50.906;4.198;2023-07-31T06:04:03;20.80;70.30
74617;DHT22;63123;50.906;4.198;2023-07-31T06:06:29;20.90;70.40
74617;DHT22;63123;50.906;4.198;2023-07-31T06:08:54;20.80;70.30
74617;DHT22;63123;50.906;4.198;2023-07-31T06:11:21;20.80;70.30
74617;DHT22;63123;50.906;4.198;2023-07-31T06:13:47;20.90;70.30
74617;DHT22;63123;50.906;4.198;2023-07-31T06:16:14;20.90;70.40
74617;DHT22;63123;50.906;4.198;2023-07-31T06:18:41;20.90;70.40
74617;DHT22;63123;50.906;4.198;2023-07-31T06:21:07;20.90;70.30
74617;DHT22;63123;50.906;4.198;2023-07-31T06:23:33;20.90;70.30
74617;DHT22;63123;50.906;4.198;2023-07-31T06:25:58;20.80;70.30
74617;DHT22;63123;50.906;4.198;2023-07-31T06:28:28;20.90;70.40
74617;DHT22;63123;50.906;4.198;2023-07-31T06:30:57;20.90;70.40
74617;DHT22;63123;50.906;4.198;2023-07-31T06:33:23;20.80;70.30
74617;DHT22;63123;50.906;4.198;2023-07-31T06:35:48;20.90;70.40
74617;DHT22;63123;50.906;4.198;2023-07-31T06:38:14;20.80;70.30
74617;DHT22;63123;50.906;4.198;2023-07-31T06:40:40;20.80;70.30
74617;DHT22;63123;50.906;4.198;2023-07-31T06:43:05;20.80;70.30
74617;DHT22;63123;50.906;4.198;2023-07-31T06:45:35;20.80;70.30
74617;DHT22;63123;50.906;4.198;2023-07-31T06:48:01;20.80;70.30
74617;DHT22;63123;50.906;4.198;2023-07-31T06:50:28;20.90;70.40
74617;DHT22;63123;50.906;4.198;2023-07-31T06:52:54;20.90;70.40
74617;DHT22;63123;50.906;4.198;2023-07-31T06:55:20;20.80;70.30
74617;DHT22;63123;50.906;4.198;2023-07-31T06:57:47;20.80;70.30
74617;DHT22;63123;50.906;4.198;2023-07-31T07:00:13;20.90;70.40
74617;DHT22;63123;50.906;4.198;2023-07-31T07:02:39;20.90;70.40
74617;DHT22;63123;50.906;4.198;2023-07-31T07:05:06;20.90;70.40
74617;DHT22;63123;50.906;4.198;2023-07-31T07:07:32;20.90;70.40
74617;DHT22;63123;50.906;4.198;2023-07-31T07:09:57;20.90;70.40
74617;DHT22;63123;50.906;4.198;2023-07-31T07:12:25;20.90;70.40
74617;DHT22;63123;50.906;4.198;2023-07-31T07:14:51;20.90;70.40
74617;DHT22;63123;50.906;4.198;2023-07-31T07:17:18;20.90;70.40
74617;DHT22;63123;50.906;4.198;2023-07-31T07:19:44;20.80;70.30
74617;DHT22;63123;50.906;4.198;2023-07-31T07:22:11;20.90;70.40
74617;DHT22;63123;50.906;4.198;2023-07-31T07:24:36;20.80;70.30
74617;DHT22;63123;50.906;4.198;2023-07-31T07:27:02;20.80;70.30
74617;DHT22;63123;50.906;4.198;2023-07-31T07:29:28;20.90;70.40
74617;DHT22;63123;50.906;4.198;2023-07-31T07:31:54;20.90;70.40
74617;DHT22;63123;50.906;4.198;2023-07-31T07:34:19;20.90;70.40
74617;DHT22;63123;50.906;4.198;2023-07-31T07:36:45;20.90;70.40
74617;DHT22;63123;50.906;4.198;2023-07-31T07:39:11;20.90;70.40
74617;DHT22;63123;50.906;4.198;2023-07-31T07:41:36;20.90;70.40
74617;DHT22;63123;50.906;4.198;2023-07-31T07:44:02;20.90;70.40
74617;DHT22;63123;50.906;4.198;2023-07-31T07:46:27;20.80;70.40
74617;DHT22;63123;50.906;4.198;2023-07-31T07:48:53;20.90;70.40
74617;DHT22;63123;50.906;4.198;2023-07-31T07:51:18;20.80;70.30
74617;DHT22;63123;50.906;4.198;2023-07-31T07:53:44;20.90;70.40
74617;DHT22;63123;50.906;4.198;2023-07-31T07:56:10;20.90;70.50
74617;DHT22;63123;50.906;4.198;2023-07-31T07:58:35;20.80;70.40
74617;DHT22;63123;50.906;4.198;2023-07-31T08:01:01;20.90;70.40
74617;DHT22;63123;50.906;4.198;2023-07-31T08:03:26;20.80;70.40
74617;DHT22;63123;50.906;4.198;2023-07-31T08:05:52;20.90;70.40
74617;DHT22;63123;50.906;4.198;2023-07-31T08:08:18;20.90;70.40
74617;DHT22;63123;50.906;4.198;2023-07-31T08:10:44;20.90;70.40
74617;DHT22;63123;50.906;4.198;2023-07-31T08:13:11;20.90;70.40
74617;DHT22;63123;50.906;4.198;2023-07-31T08:15:37;20.90;70.50
74617;DHT22;63123;50.906;4.198;2023-07-31T08:18:02;20.80;70.40
74617;DHT22;63123;50.906;4.198;2023-07-31T08:20:28;20.90;70.50
74617;DHT22;63123;50.906;4.198;2023-07-31T08:22:54;20.90;70.50
74617;DHT22;63123;50.906;4.198;2023-07-31T08:25:19;20.80;70.40
74617;DHT22;63123;50.906;4.198;2023-07-31T08:27:45;20.90;70.50
74617;DHT22;63123;50.906;4.198;2023-07-31T08:30:11;20.90;70.50
74617;DHT22;63123;50.906;4.198;2023-07-31T08:32:37;20.90;70.50
74617;DHT22;63123;50.906;4.198;2023-07-31T08:35:03;20.90;70.50
74617;DHT22;63123;50.906;4.198;2023-07-31T08:37:28;20.90;70.50
74617;DHT22;63123;50.906;4.198;2023-07-31T08:39:54;20.90;70.50
74617;DHT22;63123;50.906;4.198;2023-07-31T08:42:20;20.90;70.50
74617;DHT22;63123;50.906;4.198;2023-07-31T08:44:46;20.90;70.50
74617;DHT22;63123;50.906;4.198;2023-07-31T08:47:13;20.90;70.50
74617;DHT22;63123;50.906;4.198;2023-07-31T08:49:39;20.90;70.60
74617;DHT22;63123;50.906;4.198;2023-07-31T08:52:07;20.90;70.50
74617;DHT22;63123;50.906;4.198;2023-07-31T08:54:33;20.90;70.50
74617;DHT22;63123;50.906;4.198;2023-07-31T08:56:59;20.80;70.50
74617;DHT22;63123;50.906;4.198;2023-07-31T08:59:29;20.90;70.50
74617;DHT22;63123;50.906;4.198;2023-07-31T09:01:55;20.90;70.60
74617;DHT22;63123;50.906;4.198;2023-07-31T09:04:23;20.90;70.50
74617;DHT22;63123;50.906;4.198;2023-07-31T09:06:49;20.90;70.60
74617;DHT22;63123;50.906;4.198;2023-07-31T09:09:15;20.90;70.60
74617;DHT22;63123;50.906;4.198;2023-07-31T09:11:41;20.90;70.50
74617;DHT22;63123;50.906;4.198;2023-07-31T09:14:08;20.90;70.50
74617;DHT22;63123;50.906;4.198;2023-07-31T09:16:35;20.90;70.60
74617;DHT22;63123;50.906;4.198;2023-07-31T09:19:00;20.90;70.60
74617;DHT22;63123;50.906;4.198;2023-07-31T09:21:30;20.90;70.60
74617;DHT22;63123;50.906;4.198;2023-07-31T09:23:56;20.90;70.60
74617;DHT22;63123;50.906;4.198;2023-07-31T09:26:35;20.90;70.60
74617;DHT22;63123;50.906;4.198;2023-07-31T09:29:03;20.90;70.70
74617;DHT22;63123;50.906;4.198;2023-07-31T09:31:40;20.90;70.60
74617;DHT22;63123;50.906;4.198;2023-07-31T09:34:06;20.90;70.70
74617;DHT22;63123;50.906;4.198;2023-07-31T09:36:32;20.90;70.60
74617;DHT22;63123;50.906;4.198;2023-07-31T09:39:04;20.90;70.70
74617;DHT22;63123;50.906;4.198;2023-07-31T09:41:30;20.90;70.70
74617;DHT22;63123;50.906;4.198;2023-07-31T09:43:56;20.90;70.60
74617;DHT22;63123;50.906;4.198;2023-07-31T09:46:22;20.90;70.70
74617;DHT22;63123;50.906;4.198;2023-07-31T09:48:47;20.90;70.70
74617;DHT22;63123;50.906;4.198;2023-07-31T09:51:13;20.90;70.70
74617;DHT22;63123;50.906;4.198;2023-07-31T09:53:39;20.90;70.80
74617;DHT22;63123;50.906;4.198;2023-07-31T09:56:05;20.90;70.70
74617;DHT22;63123;50.906;4.198;2023-07-31T09:58:34;20.90;70.70
74617;DHT22;63123;50.906;4.198;2023-07-31T10:01:02;20.90;70.70
74617;DHT22;63123;50.906;4.198;2023-07-31T10:03:29;20.90;70.70
74617;DHT22;63123;50.906;4.198;2023-07-31T10:05:57;20.90;70.70
74617;DHT22;63123;50.906;4.198;2023-07-31T10:08:28;20.90;70.80
74617;DHT22;63123;50.906;4.198;2023-07-31T10:10:58;20.90;70.80
74617;DHT22;63123;50.906;4.198;2023-07-31T10:13:24;20.90;70.80
74617;DHT22;63123;50.906;4.198;2023-07-31T10:15:50;20.90;70.80
74617;DHT22;63123;50.906;4.198;2023-07-31T10:18:18;20.90;70.80
74617;DHT22;63123;50.906;4.198;2023-07-31T10:20:44;20.90;70.80
74617;DHT22;63123;50.906;4.198;2023-07-31T10:23:11;20.90;70.80
74617;DHT22;63123;50.906;4.198;2023-07-31T10:25:37;20.90;70.90
74617;DHT22;63123;50.906;4.198;2023-07-31T10:28:03;20.90;70.90
74617;DHT22;63123;50.906;4.198;2023-07-31T10:30:30;20.90;70.90
74617;DHT22;63123;50.906;4.198;2023-07-31T10:32:56;20.90;70.80
74617;DHT22;63123;50.906;4.198;2023-07-31T10:35:23;20.90;70.90
74617;DHT22;63123;50.906;4.198;2023-07-31T10:37:48;20.90;70.90
74617;DHT22;63123;50.906;4.198;2023-07-31T10:40:19;20.90;70.90
74617;DHT22;63123;50.906;4.198;2023-07-31T10:45:37;20.90;71.00
74617;DHT22;63123;50.906;4.198;2023-07-31T10:48:05;20.90;71.10
74617;DHT22;63123;50.906;4.198;2023-07-31T10:50:32;20.90;71.00
74617;DHT22;63123;50.906;4.198;2023-07-31T10:52:59;20.90;71.00
74617;DHT22;63123;50.906;4.198;2023-07-31T10:55:38;20.90;71.00
74617;DHT22;63123;50.906;4.198;2023-07-31T10:58:13;20.90;71.00
74617;DHT22;63123;50.906;4.198;2023-07-31T11:00:41;20.90;71.30
74617;DHT22;63123;50.906;4.198;2023-07-31T11:03:08;20.90;71.00
74617;DHT22;63123;50.906;4.198;2023-07-31T11:06:03;20.90;71.10
74617;DHT22;63123;50.906;4.198;2023-07-31T11:08:33;20.90;71.20
74617;DHT22;63123;50.906;4.198;2023-07-31T11:15:58;20.90;71.10
74617;DHT22;63123;50.906;4.198;2023-07-31T11:18:24;20.90;71.20
74617;DHT22;63123;50.906;4.198;2023-07-31T11:20:51;20.90;71.20
74617;DHT22;63123;50.906;4.198;2023-07-31T11:23:17;20.90;71.20
74617;DHT22;63123;50.906;4.198;2023-07-31T11:25:43;20.90;71.20
74617;DHT22;63123;50.906;4.198;2023-07-31T11:28:12;20.90;71.20
74617;DHT22;63123;50.906;4.198;2023-07-31T11:30:38;20.90;71.30
74617;DHT22;63123;50.906;4.198;2023-07-31T11:33:06;20.90;71.20
74617;DHT22;63123;50.906;4.198;2023-07-31T11:35:50;20.90;71.20
74617;DHT22;63123;50.906;4.198;2023-07-31T11:38:23;20.90;71.30
74617;DHT22;63123;50.906;4.198;2023-07-31T11:40:49;20.90;71.40
74617;DHT22;63123;50.906;4.198;2023-07-31T11:43:15;20.90;71.30
74617;DHT22;63123;50.906;4.198;2023-07-31T11:45:55;20.90;71.30
74617;DHT22;63123;50.906;4.198;2023-07-31T11:48:23;20.90;71.90
74617;DHT22;63123;50.906;4.198;2023-07-31T11:50:53;20.90;71.40
74617;DHT22;63123;50.906;4.198;2023-07-31T11:53:23;20.90;71.30
74617;DHT22;63123;50.906;4.198;2023-07-31T11:55:49;20.90;71.30
74617;DHT22;63123;50.906;4.198;2023-07-31T11:58:16;20.90;71.40
74617;DHT22;63123;50.906;4.198;2023-07-31T12:00:42;20.90;71.50
74617;DHT22;63123;50.906;4.198;2023-07-31T12:03:08;20.90;71.50
74617;DHT22;63123;50.906;4.198;2023-07-31T12:05:36;20.90;71.40
74617;DHT22;63123;50.906;4.198;2023-07-31T12:08:09;20.90;71.40
74617;DHT22;63123;50.906;4.198;2023-07-31T12:10:34;20.90;71.50
74617;DHT22;63123;50.906;4.198;2023-07-31T12:13:11;20.90;71.50
74617;DHT22;63123;50.906;4.198;2023-07-31T12:15:42;20.90;71.60
74617;DHT22;63123;50.906;4.198;2023-07-31T12:18:13;20.90;71.60
74617;DHT22;63123;50.906;4.198;2023-07-31T12:20:44;20.90;71.60
74617;DHT22;63123;50.906;4.198;2023-07-31T12:23:21;20.90;71.50
74617;DHT22;63123;50.906;4.198;2023-07-31T12:26:15;20.90;71.60
74617;DHT22;63123;50.906;4.198;2023-07-31T12:28:44;20.90;71.90
74617;DHT22;63123;50.906;4.198;2023-07-31T12:31:12;20.90;71.50
74617;DHT22;63123;50.906;4.198;2023-07-31T12:33:39;20.90;71.60
74617;DHT22;63123;50.906;4.198;2023-07-31T12:36:14;20.90;71.50
74617;DHT22;63123;50.906;4.198;2023-07-31T12:38:40;20.90;71.50
74617;DHT22;63123;50.906;4.198;2023-07-31T12:41:06;20.90;71.60
74617;DHT22;63123;50.906;4.198;2023-07-31T12:43:33;20.90;71.60
74617;DHT22;63123;50.906;4.198;2023-07-31T12:45:59;20.90;71.70
74617;DHT22;63123;50.906;4.198;2023-07-31T12:48:25;20.90;71.70
74617;DHT22;63123;50.906;4.198;2023-07-31T12:50:50;20.90;71.60
74617;DHT22;63123;50.906;4.198;2023-07-31T12:53:16;20.90;71.60
74617;DHT22;63123;50.906;4.198;2023-07-31T12:55:42;20.90;71.70
74617;DHT22;63123;50.906;4.198;2023-07-31T12:58:08;20.90;71.60
74617;DHT22;63123;50.906;4.198;2023-07-31T13:00:33;20.90;71.60
74617;DHT22;63123;50.906;4.198;2023-07-31T13:02:59;20.90;71.60
74617;DHT22;63123;50.906;4.198;2023-07-31T13:05:26;20.90;71.60
74617;DHT22;63123;50.906;4.198;2023-07-31T13:07:51;20.90;71.70
74617;DHT22;63123;50.906;4.198;2023-07-31T13:10:17;20.90;71.90
74617;DHT22;63123;50.906;4.198;2023-07-31T13:12:42;20.90;71.70
74617;DHT22;63123;50.906;4.198;2023-07-31T13:15:08;20.90;71.80
74617;DHT22;63123;50.906;4.198;2023-07-31T13:17:34;20.90;71.70
74617;DHT22;63123;50.906;4.198;2023-07-31T13:20:00;20.90;71.80
74617;DHT22;63123;50.906;4.198;2023-07-31T13:22:26;20.90;71.80
74617;DHT22;63123;50.906;4.198;2023-07-31T13:24:52;20.90;71.90
74617;DHT22;63123;50.906;4.198;2023-07-31T13:27:17;20.90;71.80
74617;DHT22;63123;50.906;4.198;2023-07-31T13:29:45;20.90;71.80
74617;DHT22;63123;50.906;4.198;2023-07-31T13:32:10;20.90;71.80
74617;DHT22;63123;50.906;4.198;2023-07-31T13:34:36;20.90;71.80
74617;DHT22;63123;50.906;4.198;2023-07-31T13:37:02;20.90;71.90
74617;DHT22;63123;50.906;4.198;2023-07-31T13:39:28;20.90;71.90
74617;DHT22;63123;50.906;4.198;2023-07-31T13:41:54;20.90;71.80
74617;DHT22;63123;50.906;4.198;2023-07-31T13:44:20;20.90;71.80
74617;DHT22;63123;50.906;4.198;2023-07-31T13:46:45;20.90;71.90
74617;DHT22;63123;50.906;4.198;2023-07-31T13:49:11;20.90;71.90
74617;DHT22;63123;50.906;4.198;2023-07-31T13:51:36;20.90;72.00
74617;DHT22;63123;50.906;4.198;2023-07-31T13:54:04;20.90;72.00
74617;DHT22;63123;50.906;4.198;2023-07-31T13:56:31;20.90;72.00
74617;DHT22;63123;50.906;4.198;2023-07-31T13:58:57;20.90;72.10
74617;DHT22;63123;50.906;4.198;2023-07-31T14:01:22;20.90;71.90
74617;DHT22;63123;50.906;4.198;2023-07-31T14:03:48;20.90;72.00
74617;DHT22;63123;50.906;4.198;2023-07-31T14:06:13;20.90;72.00
74617;DHT22;63123;50.906;4.198;2023-07-31T14:08:39;20.90;72.00
74617;DHT22;63123;50.906;4.198;2023-07-31T14:11:05;20.90;72.00
74617;DHT22;63123;50.906;4.198;2023-07-31T14:13:30;20.90;72.20
74617;DHT22;63123;50.906;4.198;2023-07-31T14:15:56;20.90;72.20
74617;DHT22;63123;50.906;4.198;2023-07-31T14:18:21;20.90;72.10
74617;DHT22;63123;50.906;4.198;2023-07-31T14:20:47;20.90;72.00
74617;DHT22;63123;50.906;4.198;2023-07-31T14:23:13;20.90;72.10
74617;DHT22;63123;50.906;4.198;2023-07-31T14:25:38;20.90;72.20
74617;DHT22;63123;50.906;4.198;2023-07-31T14:28:04;20.90;72.10
74617;DHT22;63123;50.906;4.198;2023-07-31T14:30:30;20.90;72.20
74617;DHT22;63123;50.906;4.198;2023-07-31T14:32:55;20.90;72.10
74617;DHT22;63123;50.906;4.198;2023-07-31T14:35:21;20.90;72.10
74617;DHT22;63123;50.906;4.198;2023-07-31T14:37:47;20.90;72.20
74617;DHT22;63123;50.906;4.198;2023-07-31T14:40:13;20.90;72.20
74617;DHT22;63123;50.906;4.198;2023-07-31T14:42:39;20.90;72.20
74617;DHT22;63123;50.906;4.198;2023-07-31T14:45:05;20.90;72.20
74617;DHT22;63123;50.906;4.198;2023-07-31T14:47:31;20.90;72.30
74617;DHT22;63123;50.906;4.198;2023-07-31T14:49:57;20.90;72.30
74617;DHT22;63123;50.906;4.198;2023-07-31T14:52:23;20.90;72.20
74617;DHT22;63123;50.906;4.198;2023-07-31T14:54:49;20.90;72.20
74617;DHT22;63123;50.906;4.198;2023-07-31T14:57:14;20.90;72.20
74617;DHT22;63123;50.906;4.198;2023-07-31T14:59:40;20.90;72.20
74617;DHT22;63123;50.906;4.198;2023-07-31T15:02:07;20.90;72.30
74617;DHT22;63123;50.906;4.198;2023-07-31T15:04:33;20.90;72.30
74617;DHT22;63123;50.906;4.198;2023-07-31T15:06:59;20.90;72.30
74617;DHT22;63123;50.906;4.198;2023-07-31T15:09:24;20.80;72.30
74617;DHT22;63123;50.906;4.198;2023-07-31T15:11:50;20.90;72.30
74617;DHT22;63123;50.906;4.198;2023-07-31T15:14:16;20.90;72.50
74617;DHT22;63123;50.906;4.198;2023-07-31T15:16:41;20.90;72.30
74617;DHT22;63123;50.906;4.198;2023-07-31T15:19:07;20.90;72.30
74617;DHT22;63123;50.906;4.198;2023-07-31T15:21:33;20.90;72.40
74617;DHT22;63123;50.906;4.198;2023-07-31T15:23:58;20.90;72.40
74617;DHT22;63123;50.906;4.198;2023-07-31T15:26:24;20.90;72.30
74617;DHT22;63123;50.906;4.198;2023-07-31T15:28:55;20.90;72.50
74617;DHT22;63123;50.906;4.198;2023-07-31T15:31:21;20.90;72.60
74617;DHT22;63123;50.906;4.198;2023-07-31T15:33:48;20.90;72.50
74617;DHT22;63123;50.906;4.198;2023-07-31T15:36:13;20.90;72.40